Abbotsford Airport
CYXX : now visible

Airfield :











YOU CAN JOIN US ON...

 
LOGIN :

Register | Disclaimer

   EN    FR    IT 

 









Legend :    VFR   Marginal VFR   IFR   Intensive IFR   Very Intensive IFR
Visi :
Ceiling :
>= 8 km
>= 3000ft
5 to 8 km
1000 to 3000 ft
1500m to 5 km
500 to 1000 ft
800 to 1500m
200 to 500 ft
< 800m
< 200 ft
Symbols :   Thunderstorms  Fog  Heavy snow  Heavy precipitations  Wind > 20 kt






- Airport Elevation : 195 ft
- IATA code : YXX


CYXX - Abbotsford

CURRENT METAR :
  • 291400Z 03007KT 350V080 9SM -RA FEW005 BKN035 OVC055 05/04 A3005 RMK SF1SC5SC3 SF TR SLP178

EXPIRED METARs :
  • 291300Z 01004KT 15SM -RA FEW005 BKN036 OVC050 05/04 A3008 RMK SF1SC5SC3 SF TR SLP191
  • 291200Z 02003KT 330V030 15SM FEW005 BKN032 OVC046 05/04 A3011 RMK SF1SC5SC3 SF TR SLP201

TAF TAF CYXX
Valid from the 29 at 12:00 until the 30 at 12:00 UTC


291139Z 2912/3012 05005KT P6SM SCT012 OVC040
TEMPO 2912/2915 4SM -RA BR FEW005 BKN012
BECMG 2912/2914 15010KT
FM291500 18006KT P6SM -RA SCT005 BKN020 OVC090
TEMPO 2915/2921 2SM -RA BR BKN005
BECMG 2918/2920 19012G22KT
FM292100 19012G22KT P6SM SCT008 OVC020
TEMPO 2922/3001 3SM -RA BR BKN008
FM300100 19008KT P6SM SCT015
BECMG 3003/3005 VRB03KT RMK NXT FCST BY 291800Z



MET'MAP, your aeronautical weather chart ! - Copyright ORBIFLY December 2007 - Disclaimer

ORBIFLY MET'MAP TEAM :

Programming & Development : Alexandra Zaïnal
Concept & original design : Baudouin d'Aumeries
Assistance for programming : Marc-Olivier Méhu
Technical & hardware support : Manuel Goepfert

Contact : metmap@orbifly.com




SOURCES & CREDITS :

   NOAA       Earth
Advisory